Time;durP1;ratioP1;P1;durP2;ratioP2;P2;SDS_P1;SDS_P2;PMS_P1;PMS_P2;Temp;Humidity;BMP_temperature;BMP_pressure;BME280_temperature;BME280_humidity;BME280_pressure;Samples;Min_cycle;Max_cycle;Signal;HPM_P1;HPM_P2
2023/05/02 00:00:12;;;;;;;;;;;;;;;;;;5000061;28;19921;-62
2023/05/02 00:02:37;;;;;;;;;;;;;;;;;;5004530;28;19917;-62
2023/05/02 00:05:04;;;;;;;;;;;;;;;;;;5001862;28;20380;-63
2023/05/02 00:07:29;;;;;;;;;;;;;;;;;;5007365;28;20399;-62
2023/05/02 00:09:54;;;;;;;;;;;;;;;;;;5001243;28;19956;-61
2023/05/02 00:12:20;;;;;;;;;;;;;;;;;;5002930;28;19921;-62
2023/05/02 00:14:45;;;;;;;;;;;;;;;;;;5002324;28;19940;-63
2023/05/02 00:17:11;;;;;;;;;;;;;;;;;;5005308;28;20027;-62
2023/05/02 00:19:36;;;;;;;;;;;;;;;;;;5006037;28;19917;-63
2023/05/02 00:22:01;;;;;;;;;;;;;;;;;;5002401;28;19924;-62
2023/05/02 00:24:27;;;;;;;;;;;;;;;;;;5001237;28;20312;-64
2023/05/02 00:26:52;;;;;;;;;;;;;;;;;;5000775;28;19917;-60
2023/05/02 00:29:17;;;;;;;;;;;;;;;;;;5002251;28;20350;-62
2023/05/02 00:31:43;;;;;;;;;;;;;;;;;;5000973;28;20344;-63
2023/05/02 00:34:08;;;;;;;;;;;;;;;;;;4999043;28;19913;-63
2023/05/02 00:36:33;;;;;;;;;;;;;;;;;;5000218;28;19917;-61
2023/05/02 00:38:58;;;;;;;;;;;;;;;;;;5001934;28;19922;-62
2023/05/02 00:41:24;;;;;;;;;;;;;;;;;;5004751;28;20004;-61
2023/05/02 00:43:49;;;;;;;;;;;;;;;;;;5000864;28;19977;-61
2023/05/02 00:46:15;;;;;;;;;;;;;;;;;;5000236;28;19918;-62
2023/05/02 00:48:40;;;;;;;;;;;;;;;;;;5000153;28;19921;-62
2023/05/02 00:51:07;;;;;;;;;;;;;;;;;;5005127;28;19963;-62
2023/05/02 00:53:32;;;;;;;;;;;;;;;;;;5005375;28;20352;-62
2023/05/02 00:55:58;;;;;;;;;;;;;;;;;;5006325;28;19924;-62
2023/05/02 00:58:23;;;;;;;;;;;;;;;;;;5000514;28;19917;-62
2023/05/02 01:00:49;;;;;;;;;;;;;;;;;;5004246;28;19921;-62
2023/05/02 01:03:14;;;;;;;;;;;;;;;;;;5000628;28;19917;-63
2023/05/02 01:05:40;;;;;;;;;;;;;;;;;;5001160;28;19917;-62
2023/05/02 01:08:06;;;;;;;;;;;;;;;;;;5005927;28;20235;-62
2023/05/02 01:10:31;;;;;;;;;;;;;;;;;;5006857;28;19986;-62
2023/05/02 01:12:56;;;;;;;;;;;;;;;;;;5003995;28;20269;-66
2023/05/02 01:15:21;;;;;;;;;;;;;;;;;;5001069;28;20307;-62
2023/05/02 01:17:47;;;;;;;;;;;;;;;;;;5000918;28;19929;-62
2023/05/02 01:20:12;;;;;;;;;;;;;;;;;;4988059;28;19967;-62
2023/05/02 01:22:39;;;;;;;;;;;;;;;;;;5000274;28;19987;-62
2023/05/02 01:25:05;;;;;;;;;;;;;;;;;;4999440;28;19964;-63
2023/05/02 01:27:30;;;;;;;;;;;;;;;;;;5000978;28;20396;-62
2023/05/02 01:29:56;;;;;;;;;;;;;;;;;;5002256;28;20431;-63
2023/05/02 01:32:22;;;;;;;;;;;;;;;;;;5004033;28;19955;-66
2023/05/02 01:34:47;;;;;;;;;;;;;;;;;;4999706;28;19996;-63
2023/05/02 01:37:13;;;;;;;;;;;;;;;;;;5000105;28;20302;-62
2023/05/02 01:39:38;;;;;;;;;;;;;;;;;;4999361;28;19917;-62
2023/05/02 01:42:03;;;;;;;;;;;;;;;;;;5001366;28;20030;-62
2023/05/02 01:44:29;;;;;;;;;;;;;;;;;;4999679;28;19922;-63
2023/05/02 01:46:54;;;;;;;;;;;;;;;;;;5001662;28;20388;-62
2023/05/02 01:49:19;;;;;;;;;;;;;;;;;;5001767;28;19984;-62
2023/05/02 01:51:45;;;;;;;;;;;;;;;;;;5003638;28;20002;-62
2023/05/02 01:54:10;;;;;;;;;;;;;;;;;;5003603;28;19918;-62
2023/05/02 01:56:36;;;;;;;;;;;;;;;;;;5003738;28;19917;-62
2023/05/02 01:59:01;;;;;;;;;;;;;;;;;;4997290;28;19963;-62
2023/05/02 02:01:29;;;;;;;;;;;;;;;;;;5002215;28;19991;-62
2023/05/02 02:03:55;;;;;;;;;;;;;;;;;;5002358;28;20142;-63
2023/05/02 02:06:20;;;;;;;;;;;;;;;;;;5002936;28;19932;-62
2023/05/02 02:08:45;;;;;;;;;;;;;;;;;;4998364;28;19943;-62
2023/05/02 02:11:11;;;;;;;;;;;;;;;;;;5001703;28;20404;-62
2023/05/02 02:13:36;;;;;;;;;;;;;;;;;;4999534;28;19917;-63
2023/05/02 02:16:02;;;;;;;;;;;;;;;;;;5000722;28;20056;-62
2023/05/02 02:18:27;;;;;;;;;;;;;;;;;;5000890;28;19921;-62
2023/05/02 02:20:53;;;;;;;;;;;;;;;;;;4999655;28;20423;-62
2023/05/02 02:23:20;;;;;;;;;;;;;;;;;;4998952;28;19938;-62
2023/05/02 02:25:45;;;;;;;;;;;;;;;;;;5004657;28;19933;-62
2023/05/02 02:28:10;;;;;;;;;;;;;;;;;;5002979;28;20379;-60
2023/05/02 02:30:35;;;;;;;;;;;;;;;;;;5004114;28;20250;-61
2023/05/02 02:33:01;;;;;;;;;;;;;;;;;;5018588;28;19942;-60
2023/05/02 02:35:26;;;;;;;;;;;;;;;;;;5001331;28;20056;-62
2023/05/02 02:37:52;;;;;;;;;;;;;;;;;;5005034;28;19927;-61
2023/05/02 02:40:17;;;;;;;;;;;;;;;;;;5007895;28;19977;-61
2023/05/02 02:42:42;;;;;;;;;;;;;;;;;;5004918;28;20413;-62
2023/05/02 02:45:08;;;;;;;;;;;;;;;;;;5004557;28;19964;-62
2023/05/02 02:47:33;;;;;;;;;;;;;;;;;;5005428;28;19980;-63
2023/05/02 02:49:58;;;;;;;;;;;;;;;;;;5005503;28;20267;-63
2023/05/02 02:52:23;;;;;;;;;;;;;;;;;;5007525;28;19932;-62
2023/05/02 02:54:49;;;;;;;;;;;;;;;;;;5007295;28;19928;-62
2023/05/02 02:57:15;;;;;;;;;;;;;;;;;;5002879;28;20473;-63
2023/05/02 02:59:40;;;;;;;;;;;;;;;;;;4986964;28;20466;-63
2023/05/02 03:02:06;;;;;;;;;;;;;;;;;;5004467;28;20160;-63
2023/05/02 03:04:31;;;;;;;;;;;;;;;;;;5004435;28;20537;-63
2023/05/02 03:06:57;;;;;;;;;;;;;;;;;;5007612;28;20481;-63
2023/05/02 03:09:22;;;;;;;;;;;;;;;;;;5001419;28;20006;-62
2023/05/02 03:11:49;;;;;;;;;;;;;;;;;;5003310;28;20340;-60
2023/05/02 03:14:14;;;;;;;;;;;;;;;;;;5006806;28;19917;-61
2023/05/02 03:16:40;;;;;;;;;;;;;;;;;;5001273;28;19971;-60
2023/05/02 03:19:10;;;;;;;;;;;;;;;;;;5005738;28;20037;-61
2023/05/02 03:21:36;;;;;;;;;;;;;;;;;;5001479;28;20025;-60
2023/05/02 03:24:11;;;;;;;;;;;;;;;;;;5007998;28;19917;-62
2023/05/02 03:26:37;;;;;;;;;;;;;;;;;;5007472;28;20036;-61
2023/05/02 03:29:04;;;;;;;;;;;;;;;;;;5006773;28;19917;-64
2023/05/02 03:31:34;;;;;;;;;;;;;;;;;;5002727;28;19922;-64
2023/05/02 03:34:00;;;;;;;;;;;;;;;;;;5000630;28;20491;-62
2023/05/02 03:36:26;;;;;;;;;;;;;;;;;;5010240;28;19931;-63
2023/05/02 03:38:53;;;;;;;;;;;;;;;;;;5004049;28;20295;-63
2023/05/02 03:41:19;;;;;;;;;;;;;;;;;;5005030;28;19944;-61
2023/05/02 03:43:50;;;;;;;;;;;;;;;;;;5004590;28;19939;-63
2023/05/02 03:46:16;;;;;;;;;;;;;;;;;;5006214;28;19941;-63
2023/05/02 03:48:45;;;;;;;;;;;;;;;;;;5004920;28;19936;-64
2023/05/02 03:51:10;;;;;;;;;;;;;;;;;;5007333;28;19951;-65
2023/05/02 03:53:40;;;;;;;;;;;;;;;;;;5006918;28;19937;-63
2023/05/02 03:56:07;;;;;;;;;;;;;;;;;;5007518;28;19932;-62
2023/05/02 03:58:42;;;;;;;;;;;;;;;;;;5003431;28;19959;-62
2023/05/02 04:01:08;;;;;;;;;;;;;;;;;;5007352;28;19971;-63
2023/05/02 04:03:33;;;;;;;;;;;;;;;;;;5002200;28;20036;-61
2023/05/02 04:06:00;;;;;;;;;;;;;;;;;;4999350;28;20377;-61
2023/05/02 04:08:25;;;;;;;;;;;;;;;;;;5004542;28;20526;-65
2023/05/02 04:10:51;;;;;;;;;;;;;;;;;;5000325;28;19955;-65
2023/05/02 04:13:17;;;;;;;;;;;;;;;;;;4997841;28;19938;-64
2023/05/02 04:15:45;;;;;;;;;;;;;;;;;;5007234;28;20415;-64
2023/05/02 04:18:11;;;;;;;;;;;;;;;;;;5005119;28;19944;-63
2023/05/02 04:20:37;;;;;;;;;;;;;;;;;;5006143;28;19933;-64
2023/05/02 04:23:02;;;;;;;;;;;;;;;;;;5003750;28;20466;-63
2023/05/02 04:25:28;;;;;;;;;;;;;;;;;;5003488;28;19917;-63
2023/05/02 04:27:55;;;;;;;;;;;;;;;;;;5005415;28;19933;-63
2023/05/02 04:30:22;;;;;;;;;;;;;;;;;;5001932;28;20017;-63
2023/05/02 04:32:55;;;;;;;;;;;;;;;;;;5004714;28;19986;-63
2023/05/02 04:35:22;;;;;;;;;;;;;;;;;;5001650;28;19949;-64
2023/05/02 04:37:47;;;;;;;;;;;;;;;;;;5000244;28;20062;-63
2023/05/02 04:40:13;;;;;;;;;;;;;;;;;;5006449;28;20322;-63
2023/05/02 04:42:38;;;;;;;;;;;;;;;;;;5005819;28;19939;-63
2023/05/02 04:45:10;;;;;;;;;;;;;;;;;;5006433;28;19951;-64
2023/05/02 04:47:35;;;;;;;;;;;;;;;;;;5004703;28;19935;-63
2023/05/02 04:50:01;;;;;;;;;;;;;;;;;;5001395;28;19948;-64
2023/05/02 04:52:27;;;;;;;;;;;;;;;;;;4991076;28;19983;-64
2023/05/02 04:54:56;;;;;;;;;;;;;;;;;;5005318;28;19956;-63
2023/05/02 04:57:22;;;;;;;;;;;;;;;;;;4999341;28;19917;-62
2023/05/02 04:59:51;;;;;;;;;;;;;;;;;;5015170;28;19917;-65
2023/05/02 05:02:17;;;;;;;;;;;;;;;;;;5005152;28;19917;-62
2023/05/02 05:04:44;;;;;;;;;;;;;;;;;;5001057;28;20365;-73
2023/05/02 05:07:09;;;;;;;;;;;;;;;;;;5000578;28;19921;-65
2023/05/02 05:09:35;;;;;;;;;;;;;;;;;;5001418;28;20288;-60
2023/05/02 05:12:02;;;;;;;;;;;;;;;;;;5005426;28;19968;-64
2023/05/02 05:14:30;;;;;;;;;;;;;;;;;;5001704;28;19937;-65
2023/05/02 05:16:59;;;;;;;;;;;;;;;;;;5005713;28;19969;-63
2023/05/02 05:19:25;;;;;;;;;;;;;;;;;;5005655;28;20457;-62
2023/05/02 05:21:51;;;;;;;;;;;;;;;;;;5001214;28;20056;-63
2023/05/02 05:24:20;;;;;;;;;;;;;;;;;;4999357;28;19918;-64
2023/05/02 05:26:47;;;;;;;;;;;;;;;;;;5001493;28;19917;-65
2023/05/02 05:29:13;;;;;;;;;;;;;;;;;;5004492;28;20001;-63
2023/05/02 05:31:40;;;;;;;;;;;;;;;;;;5005101;28;19925;-63
2023/05/02 05:34:07;;;;;;;;;;;;;;;;;;5005016;28;19925;-64
2023/05/02 05:36:32;;;;;;;;;;;;;;;;;;5003816;28;19940;-63
2023/05/02 05:39:00;;;;;;;;;;;;;;;;;;5002213;28;19922;-64
2023/05/02 05:41:25;;;;;;;;;;;;;;;;;;5000472;28;19917;-63
2023/05/02 05:43:57;;;;;;;;;;;;;;;;;;4989745;28;20359;-63
2023/05/02 05:46:24;;;;;;;;;;;;;;;;;;5004135;28;19921;-64
2023/05/02 05:48:50;;;;;;;;;;;;;;;;;;5001083;28;19925;-63
2023/05/02 05:51:15;;;;;;;;;;;;;;;;;;5002320;28;19972;-65
2023/05/02 05:53:40;;;;;;;;;;;;;;;;;;5003092;28;20564;-65
2023/05/02 05:56:08;;;;;;;;;;;;;;;;;;5014505;28;20367;-64
2023/05/02 05:58:34;;;;;;;;;;;;;;;;;;5000722;28;19924;-64
2023/05/02 06:00:59;;;;;;;;;;;;;;;;;;5004492;28;19922;-65
2023/05/02 06:03:25;;;;;;;;;;;;;;;;;;5001624;28;19925;-63
2023/05/02 06:05:50;;;;;;;;;;;;;;;;;;4997810;28;20391;-63
2023/05/02 06:08:15;;;;;;;;;;;;;;;;;;5001893;28;20356;-62
2023/05/02 06:10:41;;;;;;;;;;;;;;;;;;5004843;28;20380;-63
2023/05/02 06:13:06;;;;;;;;;;;;;;;;;;5002925;28;19988;-68
2023/05/02 06:15:34;;;;;;;;;;;;;;;;;;5004044;28;19949;-61
2023/05/02 06:18:01;;;;;;;;;;;;;;;;;;5000129;28;20346;-61
2023/05/02 06:20:26;;;;;;;;;;;;;;;;;;5002011;28;21019;-61
2023/05/02 06:22:52;;;;;;;;;;;;;;;;;;5001366;28;20004;-63
2023/05/02 06:25:17;;;;;;;;;;;;;;;;;;5001841;28;19917;-62
2023/05/02 06:27:43;;;;;;;;;;;;;;;;;;4999812;28;19920;-63
2023/05/02 06:30:08;;;;;;;;;;;;;;;;;;5001064;28;19921;-61
2023/05/02 06:32:33;;;;;;;;;;;;;;;;;;5002496;28;20092;-61
2023/05/02 06:34:59;;;;;;;;;;;;;;;;;;5000411;28;19921;-62
2023/05/02 06:37:24;;;;;;;;;;;;;;;;;;4999745;28;19952;-62
2023/05/02 06:39:49;;;;;;;;;;;;;;;;;;4999053;28;19937;-61
2023/05/02 06:42:15;;;;;;;;;;;;;;;;;;4995903;28;19938;-61
2023/05/02 06:44:40;;;;;;;;;;;;;;;;;;4998150;28;19941;-64
2023/05/02 06:47:06;;;;;;;;;;;;;;;;;;4989425;28;20306;-62
2023/05/02 06:49:31;;;;;;;;;;;;;;;;;;4999672;28;19936;-62
2023/05/02 06:51:57;;;;;;;;;;;;;;;;;;4999315;28;19962;-60
2023/05/02 06:54:22;;;;;;;;;;;;;;;;;;5000508;28;20050;-61
2023/05/02 06:56:48;;;;;;;;;;;;;;;;;;4998610;28;19917;-61
2023/05/02 06:59:15;;;;;;;;;;;;;;;;;;4998079;28;19937;-62
2023/05/02 07:01:40;;;;;;;;;;;;;;;;;;5002821;28;19923;-61
2023/05/02 07:04:06;;;;;;;;;;;;;;;;;;4999307;28;20304;-61
2023/05/02 07:06:32;;;;;;;;;;;;;;;;;;4998715;28;19917;-61
2023/05/02 07:08:57;;;;;;;;;;;;;;;;;;5000853;28;19988;-61
2023/05/02 07:11:22;;;;;;;;;;;;;;;;;;4999519;28;19960;-60
2023/05/02 07:13:48;;;;;;;;;;;;;;;;;;4998340;28;19942;-60
2023/05/02 07:16:13;;;;;;;;;;;;;;;;;;5000452;28;20053;-61
2023/05/02 07:18:39;;;;;;;;;;;;;;;;;;5001233;28;19926;-61
2023/05/02 07:21:04;;;;;;;;;;;;;;;;;;5003192;28;20658;-61
2023/05/02 07:23:30;;;;;;;;;;;;;;;;;;5006244;28;20266;-60
2023/05/02 07:25:55;;;;;;;;;;;;;;;;;;5002531;28;19923;-60
2023/05/02 07:28:20;;;;;;;;;;;;;;;;;;5000910;28;19913;-62
2023/05/02 07:30:46;;;;;;;;;;;;;;;;;;5001829;28;20013;-57
2023/05/02 07:33:11;;;;;;;;;;;;;;;;;;5003775;28;19921;-58
2023/05/02 07:35:36;;;;;;;;;;;;;;;;;;5000936;28;20277;-58
2023/05/02 07:38:02;;;;;;;;;;;;;;;;;;5000561;28;19974;-59
2023/05/02 07:40:27;;;;;;;;;;;;;;;;;;5003950;28;20040;-60
2023/05/02 07:42:52;;;;;;;;;;;;;;;;;;5003458;28;20356;-58
2023/05/02 07:45:18;;;;;;;;;;;;;;;;;;5000677;28;19929;-60
2023/05/02 07:47:43;;;;;;;;;;;;;;;;;;5002337;28;19921;-58
2023/05/02 07:50:08;;;;;;;;;;;;;;;;;;5002505;28;20479;-57
2023/05/02 07:52:34;;;;;;;;;;;;;;;;;;5004860;28;19921;-58
2023/05/02 07:54:59;;;;;;;;;;;;;;;;;;5003007;28;20031;-59
2023/05/02 07:57:25;;;;;;;;;;;;;;;;;;5002871;28;19917;-58
2023/05/02 07:59:50;;;;;;;;;;;;;;;;;;5002361;28;19914;-57
2023/05/02 08:02:18;;;;;;;;;;;;;;;;;;5002026;28;20352;-58
2023/05/02 08:04:44;;;;;;;;;;;;;;;;;;5003965;28;20549;-58
2023/05/02 08:07:09;;;;;;;;;;;;;;;;;;5002135;28;19921;-59
2023/05/02 08:09:34;;;;;;;;;;;;;;;;;;5003375;28;20428;-57
2023/05/02 08:12:02;;;;;;;;;;;;;;;;;;5004857;28;19967;-57
2023/05/02 08:14:27;;;;;;;;;;;;;;;;;;5004602;28;19925;-59
2023/05/02 08:16:52;;;;;;;;;;;;;;;;;;5000839;28;19926;-58
2023/05/02 08:19:18;;;;;;;;;;;;;;;;;;5002615;28;19964;-59
2023/05/02 08:21:43;;;;;;;;;;;;;;;;;;5003396;28;19933;-56
2023/05/02 08:24:08;;;;;;;;;;;;;;;;;;5003005;28;19975;-58
2023/05/02 08:26:34;;;;;;;;;;;;;;;;;;5000264;28;20682;-58
2023/05/02 08:28:59;;;;;;;;;;;;;;;;;;5004424;28;19952;-57
2023/05/02 08:31:25;;;;;;;;;;;;;;;;;;5002073;28;20300;-58
2023/05/02 08:33:50;;;;;;;;;;;;;;;;;;5002102;28;20030;-58
2023/05/02 08:36:16;;;;;;;;;;;;;;;;;;5002463;28;19917;-62
2023/05/02 08:38:41;;;;;;;;;;;;;;;;;;5003924;28;19918;-59
2023/05/02 08:41:06;;;;;;;;;;;;;;;;;;5002465;28;19921;-56
2023/05/02 08:43:32;;;;;;;;;;;;;;;;;;5001813;28;19917;-59
2023/05/02 08:45:57;;;;;;;;;;;;;;;;;;5003255;28;19932;-58
2023/05/02 08:48:22;;;;;;;;;;;;;;;;;;5004137;28;19933;-58
2023/05/02 08:50:48;;;;;;;;;;;;;;;;;;5001714;28;20438;-56
2023/05/02 08:53:13;;;;;;;;;;;;;;;;;;5002415;28;20326;-64
2023/05/02 08:55:39;;;;;;;;;;;;;;;;;;5003625;28;19921;-58
2023/05/02 08:58:04;;;;;;;;;;;;;;;;;;5002426;28;20258;-59
2023/05/02 09:00:30;;;;;;;;;;;;;;;;;;5003356;28;19917;-58
2023/05/02 09:02:56;;;;;;;;;;;;;;;;;;5001896;28;19917;-59
2023/05/02 09:05:21;;;;;;;;;;;;;;;;;;5000002;28;19925;-59
2023/05/02 09:07:46;;;;;;;;;;;;;;;;;;5001997;28;19922;-57
2023/05/02 09:10:12;;;;;;;;;;;;;;;;;;5000699;28;19927;-57
2023/05/02 09:12:37;;;;;;;;;;;;;;;;;;5000907;28;19921;-57
2023/05/02 09:15:03;;;;;;;;;;;;;;;;;;5000420;28;20332;-58
2023/05/02 09:17:28;;;;;;;;;;;;;;;;;;5000489;28;20517;-58
2023/05/02 09:19:54;;;;;;;;;;;;;;;;;;5003811;28;19924;-58
2023/05/02 09:22:19;;;;;;;;;;;;;;;;;;4999668;28;19929;-59
2023/05/02 09:24:44;;;;;;;;;;;;;;;;;;5003426;28;20063;-58
2023/05/02 09:27:10;;;;;;;;;;;;;;;;;;5004087;28;19968;-58
2023/05/02 09:29:36;;;;;;;;;;;;;;;;;;4999942;28;20519;-60
2023/05/02 09:32:02;;;;;;;;;;;;;;;;;;5004218;28;20582;-58
2023/05/02 09:34:28;;;;;;;;;;;;;;;;;;5001647;28;19957;-59
2023/05/02 09:36:53;;;;;;;;;;;;;;;;;;5003007;28;20440;-57
2023/05/02 09:39:18;;;;;;;;;;;;;;;;;;4999181;28;20736;-60
2023/05/02 09:41:44;;;;;;;;;;;;;;;;;;5001783;28;20348;-59
2023/05/02 09:44:10;;;;;;;;;;;;;;;;;;5002424;28;20296;-59
2023/05/02 09:46:35;;;;;;;;;;;;;;;;;;5004541;28;19924;-60
2023/05/02 09:49:00;;;;;;;;;;;;;;;;;;5000377;28;19921;-58
2023/05/02 09:51:25;;;;;;;;;;;;;;;;;;4999438;28;20291;-58
2023/05/02 09:53:51;;;;;;;;;;;;;;;;;;5000885;28;20367;-59
2023/05/02 09:56:16;;;;;;;;;;;;;;;;;;5001110;28;19918;-60
2023/05/02 09:58:41;;;;;;;;;;;;;;;;;;5001585;28;19963;-58
2023/05/02 10:01:07;;;;;;;;;;;;;;;;;;4997615;28;19956;-60
2023/05/02 10:03:33;;;;;;;;;;;;;;;;;;4999161;28;19999;-60
2023/05/02 10:05:58;;;;;;;;;;;;;;;;;;4989413;28;20087;-60
2023/05/02 10:08:24;;;;;;;;;;;;;;;;;;5001188;28;20461;-58
2023/05/02 10:10:49;;;;;;;;;;;;;;;;;;5000788;28;19945;-60
2023/05/02 10:13:15;;;;;;;;;;;;;;;;;;5000683;28;20321;-61
2023/05/02 10:15:41;;;;;;;;;;;;;;;;;;4998244;28;19998;-60
2023/05/02 10:18:06;;;;;;;;;;;;;;;;;;5000093;28;19921;-60
2023/05/02 10:20:31;;;;;;;;;;;;;;;;;;5001836;28;19924;-60
2023/05/02 10:22:56;;;;;;;;;;;;;;;;;;4999754;28;19953;-60
2023/05/02 10:25:22;;;;;;;;;;;;;;;;;;5000948;28;20391;-60
2023/05/02 10:27:47;;;;;;;;;;;;;;;;;;5000672;28;20008;-60
2023/05/02 10:30:12;;;;;;;;;;;;;;;;;;4999817;28;20321;-59
2023/05/02 10:32:38;;;;;;;;;;;;;;;;;;5003845;28;19921;-59
2023/05/02 10:35:03;;;;;;;;;;;;;;;;;;5000679;28;19924;-60
2023/05/02 10:37:28;;;;;;;;;;;;;;;;;;4999598;28;20134;-59
2023/05/02 10:39:54;;;;;;;;;;;;;;;;;;5001499;28;19917;-60
2023/05/02 10:42:20;;;;;;;;;;;;;;;;;;5003119;28;20019;-64
2023/05/02 10:44:46;;;;;;;;;;;;;;;;;;5008152;28;20372;-60
2023/05/02 10:47:11;;;;;;;;;;;;;;;;;;5006839;28;19925;-59
2023/05/02 10:49:37;;;;;;;;;;;;;;;;;;5006154;28;19930;-59
2023/05/02 10:52:02;;;;;;;;;;;;;;;;;;5008290;28;19960;-59
2023/05/02 10:54:28;;;;;;;;;;;;;;;;;;5004890;28;20471;-61
2023/05/02 10:56:53;;;;;;;;;;;;;;;;;;5005197;28;20369;-60
2023/05/02 10:59:18;;;;;;;;;;;;;;;;;;5004301;28;20377;-60
2023/05/02 11:01:44;;;;;;;;;;;;;;;;;;5006356;28;19917;-60
2023/05/02 11:04:10;;;;;;;;;;;;;;;;;;5004488;28;20514;-60
2023/05/02 11:06:35;;;;;;;;;;;;;;;;;;5006559;28;19947;-60
2023/05/02 11:09:00;;;;;;;;;;;;;;;;;;5002632;28;20016;-60
2023/05/02 11:11:26;;;;;;;;;;;;;;;;;;5004461;28;19929;-61
2023/05/02 11:13:51;;;;;;;;;;;;;;;;;;5004592;28;19971;-59
2023/05/02 11:16:16;;;;;;;;;;;;;;;;;;5002700;28;19987;-58
2023/05/02 11:18:42;;;;;;;;;;;;;;;;;;5004662;28;19921;-59
2023/05/02 11:21:07;;;;;;;;;;;;;;;;;;5002261;28;19987;-59
2023/05/02 11:23:35;;;;;;;;;;;;;;;;;;5002205;28;19924;-56
2023/05/02 11:26:02;;;;;;;;;;;;;;;;;;5000197;28;20051;-56
2023/05/02 11:28:27;;;;;;;;;;;;;;;;;;5003162;28;20021;-59
2023/05/02 11:30:52;;;;;;;;;;;;;;;;;;5001079;28;20397;-60
2023/05/02 11:33:18;;;;;;;;;;;;;;;;;;5003649;28;19932;-61
2023/05/02 11:35:44;;;;;;;;;;;;;;;;;;5003287;28;19932;-60
2023/05/02 11:38:09;;;;;;;;;;;;;;;;;;5005072;28;19940;-60
2023/05/02 11:40:35;;;;;;;;;;;;;;;;;;5001615;28;19936;-61
2023/05/02 11:43:00;;;;;;;;;;;;;;;;;;5004925;28;19928;-61
2023/05/02 11:45:26;;;;;;;;;;;;;;;;;;5001665;28;20028;-61
2023/05/02 11:47:51;;;;;;;;;;;;;;;;;;5002299;28;20063;-59
2023/05/02 11:50:16;;;;;;;;;;;;;;;;;;5007040;28;20392;-61
2023/05/02 11:52:41;;;;;;;;;;;;;;;;;;5003346;28;19942;-60
2023/05/02 11:55:07;;;;;;;;;;;;;;;;;;5004468;28;19931;-59
2023/05/02 11:57:33;;;;;;;;;;;;;;;;;;5002889;28;19936;-61
2023/05/02 11:59:59;;;;;;;;;;;;;;;;;;5004357;28;20445;-61
2023/05/02 12:02:24;;;;;;;;;;;;;;;;;;5003282;28;19945;-60
2023/05/02 12:04:50;;;;;;;;;;;;;;;;;;5005549;28;19932;-60
2023/05/02 12:07:15;;;;;;;;;;;;;;;;;;5000639;28;19918;-62
2023/05/02 12:09:40;;;;;;;;;;;;;;;;;;5003648;28;20345;-61
2023/05/02 12:12:06;;;;;;;;;;;;;;;;;;4998374;28;20388;-60
2023/05/02 12:14:32;;;;;;;;;;;;;;;;;;5002736;28;19952;-60
2023/05/02 12:16:58;;;;;;;;;;;;;;;;;;4996695;28;20019;-60
2023/05/02 12:19:23;;;;;;;;;;;;;;;;;;5003208;28;20387;-61
2023/05/02 12:21:48;;;;;;;;;;;;;;;;;;5002629;28;19918;-63
2023/05/02 12:24:14;;;;;;;;;;;;;;;;;;5004597;28;20012;-61
2023/05/02 12:26:39;;;;;;;;;;;;;;;;;;5002813;28;19939;-61
2023/05/02 12:29:06;;;;;;;;;;;;;;;;;;5006290;28;19938;-61
2023/05/02 12:31:32;;;;;;;;;;;;;;;;;;5003449;28;19925;-61
2023/05/02 12:33:58;;;;;;;;;;;;;;;;;;5000027;28;19957;-61
2023/05/02 12:36:24;;;;;;;;;;;;;;;;;;5003830;28;20399;-62
2023/05/02 12:38:51;;;;;;;;;;;;;;;;;;5000781;28;19939;-61
2023/05/02 12:41:17;;;;;;;;;;;;;;;;;;5002247;28;19952;-61
2023/05/02 12:43:42;;;;;;;;;;;;;;;;;;5002585;28;19914;-61
2023/05/02 12:46:07;;;;;;;;;;;;;;;;;;5001087;28;19917;-60
2023/05/02 12:48:33;;;;;;;;;;;;;;;;;;5000950;28;19923;-60
2023/05/02 12:50:58;;;;;;;;;;;;;;;;;;4999148;28;20068;-61
2023/05/02 12:53:24;;;;;;;;;;;;;;;;;;5000156;28;20382;-61
2023/05/02 12:55:50;;;;;;;;;;;;;;;;;;4999579;28;19919;-61
2023/05/02 12:58:16;;;;;;;;;;;;;;;;;;5004513;28;20400;-61
2023/05/02 13:00:41;;;;;;;;;;;;;;;;;;4998382;28;20175;-61
2023/05/02 13:03:07;;;;;;;;;;;;;;;;;;4996029;28;20368;-62
2023/05/02 13:05:32;;;;;;;;;;;;;;;;;;5000223;28;19933;-60
2023/05/02 13:07:58;;;;;;;;;;;;;;;;;;5000621;28;19928;-63
2023/05/02 13:10:27;;;;;;;;;;;;;;;;;;5002008;28;19949;-61
2023/05/02 13:12:54;;;;;;;;;;;;;;;;;;4999466;28;20469;-59
2023/05/02 13:15:19;;;;;;;;;;;;;;;;;;4997060;28;19927;-59
2023/05/02 13:17:45;;;;;;;;;;;;;;;;;;4997831;28;19939;-59
2023/05/02 13:20:10;;;;;;;;;;;;;;;;;;5000598;28;19928;-58
2023/05/02 13:22:36;;;;;;;;;;;;;;;;;;4999920;28;19937;-60
2023/05/02 13:25:01;;;;;;;;;;;;;;;;;;5006809;28;19917;-58
2023/05/02 13:27:27;;;;;;;;;;;;;;;;;;4999341;28;20011;-58
2023/05/02 13:29:52;;;;;;;;;;;;;;;;;;5001214;28;19932;-58
2023/05/02 13:32:18;;;;;;;;;;;;;;;;;;5002091;28;19992;-58
2023/05/02 13:34:43;;;;;;;;;;;;;;;;;;5002594;28;19923;-60
2023/05/02 13:37:08;;;;;;;;;;;;;;;;;;4999929;28;19960;-58
2023/05/02 13:39:34;;;;;;;;;;;;;;;;;;4995948;28;19949;-58
2023/05/02 13:42:02;;;;;;;;;;;;;;;;;;4998590;28;20448;-59
2023/05/02 13:44:28;;;;;;;;;;;;;;;;;;4998046;28;19918;-58
2023/05/02 13:46:53;;;;;;;;;;;;;;;;;;5006632;28;20190;-60
2023/05/02 13:49:19;;;;;;;;;;;;;;;;;;5006536;28;20383;-58
2023/05/02 13:51:44;;;;;;;;;;;;;;;;;;4997994;28;19944;-58
2023/05/02 13:54:09;;;;;;;;;;;;;;;;;;5002652;28;19928;-59
2023/05/02 13:56:36;;;;;;;;;;;;;;;;;;5000817;28;20208;-59
2023/05/02 13:59:01;;;;;;;;;;;;;;;;;;5000030;28;19914;-58
2023/05/02 14:01:27;;;;;;;;;;;;;;;;;;4998896;28;19948;-58
2023/05/02 14:03:52;;;;;;;;;;;;;;;;;;4996252;28;19917;-59
2023/05/02 14:06:17;;;;;;;;;;;;;;;;;;5001455;28;20416;-60
2023/05/02 14:08:43;;;;;;;;;;;;;;;;;;4996995;28;19924;-58
2023/05/02 14:11:08;;;;;;;;;;;;;;;;;;4997538;28;20237;-60
2023/05/02 14:13:34;;;;;;;;;;;;;;;;;;4999296;28;19922;-59
2023/05/02 14:15:59;;;;;;;;;;;;;;;;;;4998969;28;19932;-58
2023/05/02 14:18:25;;;;;;;;;;;;;;;;;;4997717;28;19918;-59
2023/05/02 14:20:50;;;;;;;;;;;;;;;;;;5000546;28;19998;-58
2023/05/02 14:23:15;;;;;;;;;;;;;;;;;;5002161;28;20015;-59
2023/05/02 14:25:41;;;;;;;;;;;;;;;;;;5000576;28;19925;-59
2023/05/02 14:28:06;;;;;;;;;;;;;;;;;;5009866;28;19917;-60
2023/05/02 14:30:33;;;;;;;;;;;;;;;;;;5017063;28;20025;-60
2023/05/02 14:32:59;;;;;;;;;;;;;;;;;;5012749;28;20411;-59
2023/05/02 14:35:24;;;;;;;;;;;;;;;;;;5010767;28;20400;-62
2023/05/02 14:37:51;;;;;;;;;;;;;;;;;;5013921;28;20322;-63
2023/05/02 14:40:16;;;;;;;;;;;;;;;;;;5010660;28;19948;-61
2023/05/02 14:42:42;;;;;;;;;;;;;;;;;;5015419;28;19938;-60
2023/05/02 14:45:09;;;;;;;;;;;;;;;;;;5014914;28;20005;-61
2023/05/02 14:47:34;;;;;;;;;;;;;;;;;;5006870;28;19978;-61
2023/05/02 14:50:00;;;;;;;;;;;;;;;;;;5003273;28;20095;-60
2023/05/02 14:52:25;;;;;;;;;;;;;;;;;;5007085;28;19988;-59
2023/05/02 14:54:51;;;;;;;;;;;;;;;;;;5003849;28;19967;-60
2023/05/02 14:57:16;;;;;;;;;;;;;;;;;;5003543;28;19925;-65
2023/05/02 14:59:41;;;;;;;;;;;;;;;;;;5011945;28;19960;-60
2023/05/02 15:02:07;;;;;;;;;;;;;;;;;;5013026;28;19985;-60
2023/05/02 15:04:33;;;;;;;;;;;;;;;;;;5014408;28;20376;-64
2023/05/02 15:07:01;;;;;;;;;;;;;;;;;;5015836;28;19945;-62
2023/05/02 15:09:27;;;;;;;;;;;;;;;;;;5014817;28;19928;-63
2023/05/02 15:11:56;;;;;;;;;;;;;;;;;;5014370;28;19961;-61
2023/05/02 15:14:21;;;;;;;;;;;;;;;;;;5014168;28;20036;-61
2023/05/02 15:16:47;;;;;;;;;;;;;;;;;;5017567;28;20399;-61
2023/05/02 15:19:12;;;;;;;;;;;;;;;;;;5013363;28;20470;-66
2023/05/02 15:21:37;;;;;;;;;;;;;;;;;;5016695;28;19939;-63
2023/05/02 15:24:03;;;;;;;;;;;;;;;;;;5012985;28;19971;-63
2023/05/02 15:26:29;;;;;;;;;;;;;;;;;;5020055;28;20633;-61
2023/05/02 15:28:55;;;;;;;;;;;;;;;;;;5014675;28;19968;-61
2023/05/02 15:31:22;;;;;;;;;;;;;;;;;;5012597;28;19951;-63
2023/05/02 15:33:47;;;;;;;;;;;;;;;;;;5016583;28;20424;-61
2023/05/02 15:36:13;;;;;;;;;;;;;;;;;;5015658;28;20564;-61
2023/05/02 15:38:41;;;;;;;;;;;;;;;;;;5012868;28;19951;-63
2023/05/02 15:41:07;;;;;;;;;;;;;;;;;;5004690;28;20006;-60
2023/05/02 15:43:32;;;;;;;;;;;;;;;;;;5005164;28;20371;-59
2023/05/02 15:45:57;;;;;;;;;;;;;;;;;;5002674;28;20367;-61
2023/05/02 15:48:23;;;;;;;;;;;;;;;;;;5004470;28;20309;-60
2023/05/02 15:50:48;;;;;;;;;;;;;;;;;;5004173;28;20441;-60
2023/05/02 15:53:14;;;;;;;;;;;;;;;;;;5004582;28;20044;-60
2023/05/02 15:55:41;;;;;;;8.60;7.88;;;;;;;;;;5000994;28;20396;-63
2023/05/02 15:58:08;;;;;;;8.55;7.72;;;;;;;;;;5001781;28;20037;-60
2023/05/02 16:00:33;;;;;;;9.45;8.57;;;;;;;;;;5004777;28;20624;-59
2023/05/02 16:02:59;;;;;;;8.65;7.88;;;;;;;;;;5001409;28;20048;-59
2023/05/02 16:05:25;;;;;;;8.43;7.72;;;;;;;;;;5005022;28;20026;-61
2023/05/02 16:07:50;;;;;;;8.77;8.07;;;;;;;;;;5007568;28;20412;-60
2023/05/02 16:10:16;;;;;;;9.27;8.23;;;;;;;;;;4993470;28;20062;-60
2023/05/02 16:12:41;;;;;;;9.55;8.65;;;;;;;;;;5004984;28;20055;-60
2023/05/02 16:15:07;;;;;;;9.57;8.63;;;;;;;;;;5002474;28;20085;-60
2023/05/02 16:17:33;;;;;;;9.55;8.55;;;;;;;;;;5000738;28;20068;-63
2023/05/02 16:19:58;;;;;;;9.57;8.65;;;;;;;;;;5005359;28;20081;-61
2023/05/02 16:22:25;;;;;;;9.40;8.48;;;;;;;;;;5004244;28;20064;-62
2023/05/02 16:24:50;;;;;;;9.20;8.40;;;;;;;;;;5003566;28;20085;-61
2023/05/02 16:27:16;;;;;;;8.65;7.85;;;;;;;;;;5002631;28;20045;-63
2023/05/02 16:29:41;;;;;;;9.68;8.85;;;;;;;;;;5003185;28;20271;-65